createdAt,value
2022-10-15T00:01:11.876Z,17.00
2022-10-15T00:03:40.768Z,17.00
2022-10-15T00:06:10.242Z,17.00
2022-10-15T00:08:37.816Z,17.00
2022-10-15T00:11:19.705Z,16.90
2022-10-15T00:13:49.160Z,16.90
2022-10-15T00:16:19.442Z,16.90
2022-10-15T00:18:46.862Z,16.80
2022-10-15T00:21:15.382Z,16.80
2022-10-15T00:23:43.063Z,16.80
2022-10-15T00:26:13.405Z,16.80
2022-10-15T00:28:41.216Z,16.80
2022-10-15T00:31:11.949Z,16.90
2022-10-15T00:33:39.775Z,16.90
2022-10-15T00:36:17.214Z,16.90
2022-10-15T00:38:44.079Z,16.90
2022-10-15T00:41:36.063Z,16.90
2022-10-15T00:44:25.835Z,16.90
2022-10-15T00:47:07.579Z,16.90
2022-10-15T00:49:56.585Z,17.00
2022-10-15T00:52:46.063Z,16.90
2022-10-15T00:55:18.105Z,16.90
2022-10-15T00:57:47.964Z,16.90
2022-10-15T01:00:15.984Z,16.80
2022-10-15T01:02:46.084Z,16.80
2022-10-15T01:05:15.031Z,16.70
2022-10-15T01:07:42.042Z,16.70
2022-10-15T01:10:11.073Z,16.70
2022-10-15T01:12:47.536Z,16.70
2022-10-15T01:15:40.106Z,16.70
2022-10-15T01:18:11.119Z,16.60
2022-10-15T01:21:16.530Z,16.60
2022-10-15T01:23:49.089Z,16.60
2022-10-15T01:26:37.134Z,16.60
2022-10-15T01:29:12.941Z,16.60
2022-10-15T01:32:01.860Z,16.60
2022-10-15T01:34:41.193Z,16.60
2022-10-15T01:37:27.045Z,16.60
2022-10-15T01:40:31.322Z,16.60
2022-10-15T01:43:03.960Z,16.70
2022-10-15T01:46:01.983Z,16.70
2022-10-15T01:48:38.616Z,16.70
2022-10-15T01:51:06.756Z,16.70
2022-10-15T01:53:36.482Z,16.70
2022-10-15T01:56:08.466Z,16.70
2022-10-15T01:58:40.149Z,16.70
2022-10-15T02:01:07.236Z,16.70
2022-10-15T02:03:52.988Z,16.60
2022-10-15T02:06:34.188Z,16.60
2022-10-15T02:09:13.164Z,16.60
2022-10-15T02:12:01.311Z,16.60
2022-10-15T02:14:54.626Z,16.60
2022-10-15T02:17:31.547Z,16.60
2022-10-15T02:20:11.970Z,16.60
2022-10-15T02:23:01.719Z,16.70
2022-10-15T02:25:28.960Z,16.70
2022-10-15T02:27:58.509Z,16.70
2022-10-15T02:30:28.445Z,16.80
2022-10-15T02:32:58.707Z,16.80
2022-10-15T02:35:27.558Z,16.90
2022-10-15T02:37:57.464Z,16.90
2022-10-15T02:40:28.337Z,16.90
2022-10-15T02:42:56.389Z,16.90
2022-10-15T02:45:23.475Z,16.90
2022-10-15T02:47:50.770Z,16.90
2022-10-15T02:50:18.572Z,16.90
2022-10-15T02:52:45.395Z,17.00
2022-10-15T02:55:12.321Z,17.00
2022-10-15T02:57:39.374Z,17.00
2022-10-15T03:00:07.970Z,17.00
2022-10-15T03:02:35.394Z,17.00
2022-10-15T03:05:02.806Z,17.00
2022-10-15T03:07:29.966Z,17.10
2022-10-15T03:09:57.435Z,17.10
2022-10-15T03:12:26.051Z,17.00
2022-10-15T03:14:54.273Z,17.00
2022-10-15T03:17:21.742Z,17.00
2022-10-15T03:19:49.505Z,17.00
2022-10-15T03:22:16.627Z,16.90
2022-10-15T03:24:49.719Z,16.90
2022-10-15T03:27:23.038Z,16.90
2022-10-15T03:29:50.479Z,16.90
2022-10-15T03:32:17.586Z,16.90
2022-10-15T03:34:44.841Z,16.90
2022-10-15T03:37:14.105Z,16.90
2022-10-15T03:39:41.023Z,16.90
2022-10-15T03:42:08.670Z,16.80
2022-10-15T03:44:40.220Z,16.80
2022-10-15T03:47:10.709Z,16.70
2022-10-15T03:49:48.580Z,16.70
2022-10-15T03:52:15.963Z,16.60
2022-10-15T03:54:43.787Z,16.60
2022-10-15T03:57:11.892Z,16.60
2022-10-15T04:02:17.689Z,16.60
2022-10-15T04:04:44.734Z,16.60
2022-10-15T04:07:11.587Z,16.60
2022-10-15T04:09:38.733Z,16.50
2022-10-15T04:12:27.787Z,16.50
2022-10-15T04:14:54.739Z,16.40
2022-10-15T04:17:22.071Z,16.40
2022-10-15T04:19:49.993Z,16.40
2022-10-15T04:22:17.079Z,16.30
2022-10-15T04:24:51.425Z,16.30
2022-10-15T04:27:26.624Z,16.20
2022-10-15T04:29:59.071Z,16.20
2022-10-15T04:32:26.689Z,16.10
2022-10-15T04:34:53.686Z,16.10
2022-10-15T04:37:27.978Z,16.10
2022-10-15T04:39:55.007Z,16.00
2022-10-15T04:42:22.025Z,16.00
2022-10-15T04:44:48.954Z,16.00
2022-10-15T04:47:15.819Z,16.00
2022-10-15T04:49:45.555Z,16.00
2022-10-15T04:52:30.601Z,16.00
2022-10-15T04:55:04.803Z,16.00
2022-10-15T04:57:32.174Z,16.00
2022-10-15T04:59:59.129Z,16.10
2022-10-15T05:02:33.093Z,16.10
2022-10-15T05:05:29.436Z,16.10
2022-10-15T05:08:03.486Z,16.20
2022-10-15T05:10:34.246Z,16.20
2022-10-15T05:13:04.995Z,16.20
2022-10-15T05:15:34.538Z,16.20
2022-10-15T05:18:05.045Z,16.20
2022-10-15T05:20:41.267Z,16.30
2022-10-15T05:23:13.357Z,16.30
2022-10-15T05:25:43.871Z,16.30
2022-10-15T05:28:18.584Z,16.30
2022-10-15T05:30:45.612Z,16.40
2022-10-15T05:33:12.471Z,16.40
2022-10-15T05:35:39.436Z,16.40
2022-10-15T05:38:06.368Z,16.40
2022-10-15T05:40:33.208Z,16.50
2022-10-15T05:43:19.395Z,16.50
2022-10-15T05:45:48.293Z,16.50
2022-10-15T05:48:15.765Z,16.50
2022-10-15T05:50:43.191Z,16.50
2022-10-15T05:53:15.279Z,16.60
2022-10-15T05:55:46.983Z,16.60
2022-10-15T05:58:13.896Z,16.60
2022-10-15T06:00:40.778Z,16.60
2022-10-15T06:03:10.945Z,16.60
2022-10-15T06:05:37.810Z,16.60
2022-10-15T06:08:04.868Z,16.60
2022-10-15T06:10:35.015Z,16.60
2022-10-15T06:13:01.834Z,16.70
2022-10-15T06:15:28.625Z,16.70
2022-10-15T06:17:55.966Z,16.80
2022-10-15T06:20:22.794Z,16.80
2022-10-15T06:22:49.584Z,16.80
2022-10-15T06:25:16.536Z,16.90
2022-10-15T06:27:43.388Z,16.90
2022-10-15T06:30:10.559Z,16.90
2022-10-15T06:32:37.412Z,16.90
2022-10-15T06:35:04.723Z,16.90
2022-10-15T06:37:33.550Z,16.90
2022-10-15T06:40:00.843Z,16.90
2022-10-15T06:42:27.667Z,16.90
2022-10-15T06:44:55.631Z,16.90
2022-10-15T06:47:22.785Z,16.90
2022-10-15T06:49:50.235Z,16.90
2022-10-15T06:52:17.307Z,17.00
2022-10-15T06:54:44.187Z,17.00
2022-10-15T06:57:11.104Z,17.00
2022-10-15T06:59:41.197Z,17.00
2022-10-15T07:02:10.501Z,17.00
2022-10-15T07:04:37.461Z,17.00
2022-10-15T07:07:04.248Z,17.00
2022-10-15T07:09:31.372Z,17.10
2022-10-15T07:11:58.289Z,17.10
2022-10-15T07:14:25.120Z,17.10
2022-10-15T07:16:51.972Z,17.10
2022-10-15T07:19:22.882Z,17.10
2022-10-15T07:21:49.983Z,17.10
2022-10-15T07:24:18.161Z,17.10
2022-10-15T07:26:46.995Z,17.10
2022-10-15T07:29:13.958Z,17.10
2022-10-15T07:31:40.795Z,17.20
2022-10-15T07:34:07.684Z,17.20
2022-10-15T07:36:34.497Z,17.30
2022-10-15T07:39:01.304Z,17.30
2022-10-15T07:41:28.192Z,17.40
2022-10-15T07:43:55.015Z,17.40
2022-10-15T07:46:22.011Z,17.40
2022-10-15T07:48:55.471Z,17.40
2022-10-15T07:51:22.383Z,17.50
2022-10-15T07:53:49.217Z,17.50
2022-10-15T07:56:16.873Z,17.50
2022-10-15T07:58:51.278Z,17.50
2022-10-15T08:01:20.116Z,17.50
2022-10-15T08:03:47.728Z,17.50
2022-10-15T08:06:14.851Z,17.50
2022-10-15T08:08:41.869Z,17.60
2022-10-15T08:11:11.507Z,17.60
2022-10-15T08:13:41.235Z,17.60
2022-10-15T08:16:12.635Z,17.70
2022-10-15T08:18:39.546Z,17.70
2022-10-15T08:21:08.065Z,17.70
2022-10-15T08:23:36.198Z,17.90
2022-10-15T08:26:03.196Z,18.00
2022-10-15T08:28:31.443Z,18.10
2022-10-15T08:31:04.154Z,18.30
2022-10-15T08:33:34.055Z,18.30
2022-10-15T08:36:00.991Z,18.40
2022-10-15T08:38:28.634Z,18.50
2022-10-15T08:40:57.463Z,18.60
2022-10-15T08:43:24.344Z,18.70
2022-10-15T08:45:56.855Z,18.70
2022-10-15T08:48:32.411Z,18.70
2022-10-15T08:51:06.193Z,18.60
2022-10-15T08:53:45.803Z,18.60
2022-10-15T08:56:17.690Z,18.70
2022-10-15T08:59:19.271Z,18.60
2022-10-15T09:02:10.319Z,18.60
2022-10-15T09:05:14.729Z,18.60
2022-10-15T09:07:53.575Z,18.70
2022-10-15T09:10:54.816Z,18.60
2022-10-15T09:13:33.728Z,18.70
2022-10-15T09:16:15.917Z,18.70
2022-10-15T09:18:47.402Z,18.80
2022-10-15T09:21:15.118Z,18.80
2022-10-15T09:23:44.208Z,18.90
2022-10-15T09:26:20.267Z,18.90
2022-10-15T09:29:02.757Z,18.90
2022-10-15T09:31:41.977Z,18.90
2022-10-15T09:34:20.627Z,18.90
2022-10-15T09:36:54.088Z,18.90
2022-10-15T09:39:58.291Z,18.90
2022-10-15T09:42:40.728Z,19.00
2022-10-15T09:45:14.140Z,18.90
2022-10-15T09:47:42.654Z,19.00
2022-10-15T09:50:14.382Z,19.10
2022-10-15T09:53:03.460Z,19.10
2022-10-15T09:55:35.933Z,19.10
2022-10-15T09:58:08.435Z,19.20
2022-10-15T10:01:08.129Z,19.10
2022-10-15T10:03:36.749Z,19.10
2022-10-15T10:06:12.931Z,19.10
2022-10-15T10:08:59.887Z,19.00
2022-10-15T10:11:45.290Z,18.90
2022-10-15T10:14:33.147Z,18.90
2022-10-15T10:17:08.652Z,18.80
2022-10-15T10:19:35.639Z,18.70
2022-10-15T10:22:20.087Z,18.80
2022-10-15T10:24:47.777Z,18.70
2022-10-15T10:27:27.532Z,18.70
2022-10-15T10:30:00.992Z,18.60
2022-10-15T10:32:33.959Z,18.60
2022-10-15T10:35:03.370Z,18.60
2022-10-15T10:37:42.707Z,18.60
2022-10-15T10:40:33.871Z,18.60
2022-10-15T10:43:22.561Z,18.60
2022-10-15T10:46:14.527Z,18.60
2022-10-15T10:48:52.030Z,18.60
2022-10-15T10:51:24.843Z,18.60
2022-10-15T10:54:06.190Z,18.60
2022-10-15T10:56:36.616Z,18.60
2022-10-15T10:59:25.508Z,18.60
2022-10-15T11:01:52.837Z,18.60
2022-10-15T11:04:27.002Z,18.60
2022-10-15T11:07:17.227Z,18.60
2022-10-15T11:09:56.119Z,18.60
2022-10-15T11:12:35.278Z,18.60
2022-10-15T11:15:13.977Z,18.70
2022-10-15T11:18:14.827Z,18.70
2022-10-15T11:20:59.785Z,18.80
2022-10-15T11:23:40.471Z,18.80
2022-10-15T11:26:37.594Z,18.80
2022-10-15T11:29:25.992Z,18.90
2022-10-15T11:32:15.083Z,18.90
2022-10-15T11:35:51.638Z,18.90
2022-10-15T11:38:52.273Z,19.00
2022-10-15T11:41:25.118Z,19.00
2022-10-15T11:44:20.843Z,19.00
2022-10-15T11:46:47.644Z,19.00
2022-10-15T11:49:37.248Z,19.10
2022-10-15T11:52:15.942Z,19.10
2022-10-15T11:54:48.870Z,19.10
2022-10-15T11:57:20.987Z,19.10
2022-10-15T11:59:55.875Z,19.10
2022-10-15T12:02:31.637Z,19.10
2022-10-15T12:05:05.019Z,19.20
2022-10-15T12:07:42.032Z,19.10
2022-10-15T12:10:14.220Z,19.20
2022-10-15T12:12:43.882Z,19.20
2022-10-15T12:15:30.348Z,19.20
2022-10-15T12:18:18.402Z,19.30
2022-10-15T12:20:46.039Z,19.30
2022-10-15T12:23:39.634Z,19.40
2022-10-15T12:26:24.729Z,19.40
2022-10-15T12:28:56.568Z,19.50
2022-10-15T12:31:25.897Z,19.60
2022-10-15T12:33:54.818Z,19.70
2022-10-15T12:36:30.631Z,19.70
2022-10-15T12:39:16.041Z,19.80
2022-10-15T12:41:53.990Z,19.80
2022-10-15T12:44:33.039Z,19.80
2022-10-15T12:47:00.589Z,19.90
2022-10-15T12:49:27.680Z,19.90
2022-10-15T12:51:56.265Z,19.90
2022-10-15T12:54:44.065Z,20.00
2022-10-15T12:57:45.303Z,20.00
2022-10-15T13:00:31.425Z,20.00
2022-10-15T13:03:15.636Z,20.10
2022-10-15T13:05:43.226Z,20.00
2022-10-15T13:08:23.229Z,20.00
2022-10-15T13:10:54.586Z,20.00
2022-10-15T13:13:26.545Z,20.00
2022-10-15T13:15:58.952Z,20.00
2022-10-15T13:18:28.190Z,20.10
2022-10-15T13:20:56.458Z,20.10
2022-10-15T13:23:31.798Z,20.20
2022-10-15T13:26:13.034Z,20.20
2022-10-15T13:28:42.129Z,20.30
2022-10-15T13:31:29.363Z,20.30
2022-10-15T13:34:03.646Z,20.30
2022-10-15T13:36:35.115Z,20.30
2022-10-15T13:39:39.953Z,20.30
2022-10-15T13:42:19.413Z,20.40
2022-10-15T13:45:15.493Z,20.40
2022-10-15T13:47:47.612Z,20.40
2022-10-15T13:50:20.863Z,20.40
2022-10-15T13:53:09.626Z,20.50
2022-10-15T13:55:40.265Z,20.50
2022-10-15T13:58:17.875Z,20.60
2022-10-15T14:01:00.063Z,20.60
2022-10-15T14:03:32.128Z,20.60
2022-10-15T14:06:14.570Z,20.60
2022-10-15T14:08:41.479Z,20.70
2022-10-15T14:11:12.981Z,20.70
2022-10-15T14:13:57.575Z,20.70
2022-10-15T14:16:41.637Z,20.80
2022-10-15T14:19:19.147Z,20.70
2022-10-15T14:21:48.693Z,20.70
2022-10-15T14:24:19.330Z,20.70
2022-10-15T14:26:47.335Z,20.60
2022-10-15T14:29:37.166Z,20.60
2022-10-15T14:32:37.782Z,20.60
2022-10-15T14:35:08.640Z,20.50
2022-10-15T14:37:41.722Z,20.50
2022-10-15T14:40:08.839Z,20.50
2022-10-15T14:42:54.647Z,20.40
2022-10-15T14:45:25.872Z,20.40
2022-10-15T14:48:00.397Z,20.30
2022-10-15T14:50:31.857Z,20.20
2022-10-15T14:52:59.859Z,20.20
2022-10-15T14:55:33.494Z,20.20
2022-10-15T14:58:07.047Z,20.10
2022-10-15T15:00:40.560Z,20.10
2022-10-15T15:03:13.464Z,20.10
2022-10-15T15:05:44.958Z,20.00
2022-10-15T15:08:12.113Z,20.00
2022-10-15T15:10:39.230Z,20.00
2022-10-15T15:13:06.467Z,20.00
2022-10-15T15:15:33.328Z,20.00
2022-10-15T15:18:00.207Z,19.90
2022-10-15T15:20:27.397Z,19.90
2022-10-15T15:22:55.043Z,19.90
2022-10-15T15:25:36.994Z,19.90
2022-10-15T15:28:04.765Z,19.90
2022-10-15T15:30:34.291Z,19.80
2022-10-15T15:33:01.186Z,19.80
2022-10-15T15:35:51.086Z,19.80
2022-10-15T15:38:23.482Z,19.80
2022-10-15T15:40:51.026Z,19.80
2022-10-15T15:43:18.966Z,19.70
2022-10-15T15:45:46.855Z,19.70
2022-10-15T15:48:14.259Z,19.70
2022-10-15T15:50:41.564Z,19.70
2022-10-15T15:53:11.926Z,19.70
2022-10-15T15:55:38.871Z,19.70
2022-10-15T15:58:05.823Z,19.70
2022-10-15T16:00:32.861Z,19.70
2022-10-15T16:02:59.727Z,19.70
2022-10-15T16:05:26.632Z,19.70
2022-10-15T16:07:53.568Z,19.60
2022-10-15T16:10:20.393Z,19.60
2022-10-15T16:12:47.298Z,19.60
2022-10-15T16:15:15.060Z,19.60
2022-10-15T16:17:43.605Z,19.50
2022-10-15T16:20:11.337Z,19.50
2022-10-15T16:22:38.436Z,19.50
2022-10-15T16:25:05.686Z,19.50
2022-10-15T16:27:34.524Z,19.40
2022-10-15T16:30:02.582Z,19.40
2022-10-15T16:32:29.569Z,19.30
2022-10-15T16:34:56.434Z,19.30
2022-10-15T16:37:23.685Z,19.30
2022-10-15T16:39:50.759Z,19.20
2022-10-15T16:44:50.175Z,19.10
2022-10-15T16:47:17.001Z,19.10
2022-10-15T16:49:43.871Z,19.10
2022-10-15T16:52:11.324Z,19.00
2022-10-15T16:54:38.414Z,19.00
2022-10-15T16:57:05.287Z,18.90
2022-10-15T16:59:32.415Z,18.90
2022-10-15T17:02:01.334Z,18.80
2022-10-15T17:04:28.521Z,18.80
2022-10-15T17:06:55.426Z,18.70
2022-10-15T17:09:23.663Z,18.70
2022-10-15T17:11:50.497Z,18.60
2022-10-15T17:14:18.092Z,18.60
2022-10-15T17:16:47.734Z,18.60
2022-10-15T17:19:17.272Z,18.60
2022-10-15T17:21:46.896Z,18.50
2022-10-15T17:24:15.367Z,18.50
2022-10-15T17:26:44.441Z,18.50
2022-10-15T17:29:20.187Z,18.50
2022-10-15T17:31:48.823Z,18.40
2022-10-15T17:34:16.337Z,18.40
2022-10-15T17:36:47.082Z,18.30
2022-10-15T17:39:17.017Z,18.30
2022-10-15T17:41:44.362Z,18.20
2022-10-15T17:44:13.208Z,18.20
2022-10-15T17:46:40.997Z,18.20
2022-10-15T17:49:09.727Z,18.20
2022-10-15T17:51:37.430Z,18.10
2022-10-15T17:54:06.592Z,18.10
2022-10-15T17:56:35.805Z,18.10
2022-10-15T17:59:05.984Z,18.10
2022-10-15T18:04:22.363Z,18.10
2022-10-15T18:06:49.197Z,18.00
2022-10-15T18:09:26.782Z,18.00
2022-10-15T18:11:55.924Z,18.00
2022-10-15T18:14:28.490Z,18.00
2022-10-15T18:16:55.352Z,18.00
2022-10-15T18:19:22.388Z,17.90
2022-10-15T18:21:49.900Z,17.90
2022-10-15T18:24:21.477Z,17.90
2022-10-15T18:26:49.428Z,17.80
2022-10-15T18:29:16.498Z,17.80
2022-10-15T18:31:43.475Z,17.80
2022-10-15T18:34:10.360Z,17.80
2022-10-15T18:36:37.893Z,17.70
2022-10-15T18:39:04.944Z,17.70
2022-10-15T18:41:33.804Z,17.70
2022-10-15T18:44:03.375Z,17.70
2022-10-15T18:46:33.855Z,17.70
2022-10-15T18:49:01.496Z,17.70
2022-10-15T18:51:31.392Z,17.70
2022-10-15T18:53:59.633Z,17.80
2022-10-15T18:56:26.883Z,17.80
2022-10-15T18:58:53.850Z,17.80
2022-10-15T19:01:29.881Z,17.80
2022-10-15T19:03:58.728Z,17.90
2022-10-15T19:06:32.235Z,17.90
2022-10-15T19:09:00.245Z,18.00
2022-10-15T19:11:30.596Z,17.90
2022-10-15T19:13:59.965Z,18.00
2022-10-15T19:16:27.744Z,18.00
2022-10-15T19:19:00.787Z,18.00
2022-10-15T19:21:27.855Z,18.00
2022-10-15T19:23:55.000Z,18.00
2022-10-15T19:26:22.063Z,18.00
2022-10-15T19:28:50.333Z,18.00
2022-10-15T19:31:29.803Z,18.00
2022-10-15T19:34:00.317Z,18.00
2022-10-15T19:36:51.669Z,18.00
2022-10-15T19:39:22.295Z,18.00
2022-10-15T19:41:51.911Z,18.00
2022-10-15T19:44:20.399Z,18.10
2022-10-15T19:46:47.352Z,18.10
2022-10-15T19:49:15.945Z,18.10
2022-10-15T19:51:43.140Z,18.10
2022-10-15T19:54:10.384Z,18.10
2022-10-15T19:56:37.305Z,18.20
2022-10-15T19:59:07.309Z,18.20
2022-10-15T20:01:34.493Z,18.20
2022-10-15T20:04:05.843Z,18.30
2022-10-15T20:06:34.824Z,18.30
2022-10-15T20:09:02.135Z,18.30
2022-10-15T20:11:29.537Z,18.30
2022-10-15T20:13:56.577Z,18.30
2022-10-15T20:16:24.243Z,18.30
2022-10-15T20:18:51.777Z,18.20
2022-10-15T20:21:18.709Z,18.20
2022-10-15T20:23:47.786Z,18.10
2022-10-15T20:26:15.963Z,18.10
2022-10-15T20:28:44.449Z,18.10
2022-10-15T20:31:24.854Z,18.00
2022-10-15T20:33:51.682Z,18.00
2022-10-15T20:36:23.459Z,17.90
2022-10-15T20:38:51.868Z,18.00
2022-10-15T20:41:19.615Z,17.90
2022-10-15T20:43:51.142Z,17.90
2022-10-15T20:46:29.886Z,17.90
2022-10-15T20:49:07.586Z,17.90
2022-10-15T20:51:36.977Z,17.90
2022-10-15T20:54:04.062Z,17.90
2022-10-15T20:56:31.157Z,17.90
2022-10-15T20:58:58.215Z,17.80
2022-10-15T21:01:25.428Z,17.90
2022-10-15T21:03:52.451Z,17.90
2022-10-15T21:06:20.571Z,17.90
2022-10-15T21:08:47.520Z,17.90
2022-10-15T21:11:14.558Z,17.90
2022-10-15T21:13:41.541Z,17.90
2022-10-15T21:16:09.228Z,17.90
2022-10-15T21:18:37.214Z,17.90
2022-10-15T21:21:09.073Z,17.80
2022-10-15T21:23:37.401Z,17.80
2022-10-15T21:26:12.245Z,17.80
2022-10-15T21:28:39.644Z,17.80
2022-10-15T21:31:07.580Z,17.80
2022-10-15T21:33:36.194Z,17.80
2022-10-15T21:36:22.368Z,17.80
2022-10-15T21:38:53.066Z,17.80
2022-10-15T21:41:20.430Z,17.80
2022-10-15T21:43:47.368Z,17.80
2022-10-15T21:46:15.128Z,17.80
2022-10-15T21:48:42.881Z,17.80
2022-10-15T21:51:12.996Z,17.80
2022-10-15T21:53:40.153Z,17.80
2022-10-15T21:56:08.219Z,17.80
2022-10-15T21:58:37.936Z,17.80
2022-10-15T22:01:10.280Z,17.80
2022-10-15T22:03:37.945Z,17.80
2022-10-15T22:06:05.938Z,17.80
2022-10-15T22:08:33.517Z,17.80
2022-10-15T22:13:54.164Z,17.80
2022-10-15T22:16:22.922Z,17.80
2022-10-15T22:18:49.830Z,17.80
2022-10-15T22:21:22.125Z,17.80
2022-10-15T22:24:00.522Z,17.80
2022-10-15T22:26:30.649Z,17.90
2022-10-15T22:29:00.089Z,17.90
2022-10-15T22:31:27.663Z,17.90
2022-10-15T22:33:54.820Z,17.90
2022-10-15T22:36:28.245Z,17.90
2022-10-15T22:39:03.581Z,17.90
2022-10-15T22:41:41.713Z,17.90
2022-10-15T22:44:13.490Z,17.90
2022-10-15T22:46:41.074Z,17.90
2022-10-15T22:49:08.786Z,17.80
2022-10-15T22:51:36.111Z,17.80
2022-10-15T22:54:03.075Z,17.70
2022-10-15T22:56:30.830Z,17.70
2022-10-15T22:58:58.474Z,17.70
2022-10-15T23:01:30.823Z,17.60
2022-10-15T23:04:01.528Z,17.60
2022-10-15T23:06:29.418Z,17.50
2022-10-15T23:08:58.102Z,17.50
2022-10-15T23:11:40.236Z,17.50
2022-10-15T23:14:11.300Z,17.40
2022-10-15T23:16:43.761Z,17.40
2022-10-15T23:19:20.078Z,17.30
2022-10-15T23:21:52.312Z,17.30
2022-10-15T23:24:21.105Z,17.30
2022-10-15T23:26:48.687Z,17.20
2022-10-15T23:29:18.670Z,17.20
2022-10-15T23:31:46.179Z,17.10
2022-10-15T23:34:18.777Z,17.10
2022-10-15T23:36:45.685Z,17.10
2022-10-15T23:39:16.112Z,17.10
2022-10-15T23:41:43.627Z,17.10
2022-10-15T23:44:11.420Z,17.10
2022-10-15T23:46:38.494Z,17.10
2022-10-15T23:49:05.424Z,17.10
2022-10-15T23:51:34.726Z,17.00
2022-10-15T23:54:02.792Z,17.10
2022-10-15T23:56:30.677Z,17.10
2022-10-15T23:58:59.793Z,17.10
